createdAt,value
2023-04-15T00:02:29.687Z,100.00
2023-04-15T00:04:57.708Z,100.00
2023-04-15T00:07:25.963Z,100.00
2023-04-15T00:09:56.346Z,100.00
2023-04-15T00:12:24.025Z,100.00
2023-04-15T00:14:52.278Z,100.00
2023-04-15T00:17:20.445Z,100.00
2023-04-15T00:19:49.807Z,100.00
2023-04-15T00:22:18.423Z,100.00
2023-04-15T00:24:46.595Z,100.00
2023-04-15T00:27:14.576Z,100.00
2023-04-15T00:29:42.631Z,100.00
2023-04-15T00:32:10.981Z,100.00
2023-04-15T00:34:38.884Z,100.00
2023-04-15T00:37:08.389Z,100.00
2023-04-15T00:39:36.375Z,100.00
2023-04-15T00:42:05.658Z,100.00
2023-04-15T00:44:34.759Z,100.00
2023-04-15T00:47:02.952Z,100.00
2023-04-15T00:49:32.224Z,100.00
2023-04-15T00:52:00.347Z,100.00
2023-04-15T00:54:29.924Z,100.00
2023-04-15T00:56:58.041Z,100.00
2023-04-15T00:59:26.376Z,100.00
2023-04-15T01:01:55.082Z,100.00
2023-04-15T01:04:23.215Z,100.00
2023-04-15T01:06:51.420Z,100.00
2023-04-15T01:09:19.795Z,100.00
2023-04-15T01:11:49.401Z,100.00
2023-04-15T01:14:17.466Z,100.00
2023-04-15T01:16:45.900Z,100.00
2023-04-15T01:19:16.152Z,100.00
2023-04-15T01:21:44.588Z,100.00
2023-04-15T01:24:13.005Z,100.00
2023-04-15T01:26:44.476Z,100.00
2023-04-15T01:29:13.225Z,100.00
2023-04-15T01:31:41.381Z,100.00
2023-04-15T01:34:09.426Z,100.00
2023-04-15T01:36:37.598Z,100.00
2023-04-15T01:39:06.540Z,100.00
2023-04-15T01:41:34.571Z,100.00
2023-04-15T01:44:04.072Z,100.00
2023-04-15T01:46:32.403Z,100.00
2023-04-15T01:49:00.979Z,100.00
2023-04-15T01:51:29.506Z,100.00
2023-04-15T01:53:57.837Z,100.00
2023-04-15T01:56:25.752Z,100.00
2023-04-15T01:58:54.179Z,100.00
2023-04-15T02:01:23.739Z,100.00
2023-04-15T02:03:51.809Z,100.00
2023-04-15T02:06:19.841Z,100.00
2023-04-15T02:08:47.958Z,100.00
2023-04-15T02:11:15.913Z,100.00
2023-04-15T02:13:44.061Z,100.00
2023-04-15T02:16:21.430Z,100.00
2023-04-15T02:18:52.062Z,100.00
2023-04-15T02:21:20.313Z,100.00
2023-04-15T02:23:48.539Z,100.00
2023-04-15T02:26:16.980Z,100.00
2023-04-15T02:28:45.002Z,100.00
2023-04-15T02:31:13.122Z,100.00
2023-04-15T02:33:41.205Z,100.00
2023-04-15T02:36:12.423Z,100.00
2023-04-15T02:38:43.235Z,100.00
2023-04-15T02:41:11.478Z,100.00
2023-04-15T02:43:40.061Z,100.00
2023-04-15T02:46:13.021Z,100.00
2023-04-15T02:48:41.252Z,100.00
2023-04-15T02:51:19.852Z,100.00
2023-04-15T02:53:48.513Z,100.00
2023-04-15T02:56:17.541Z,100.00
2023-04-15T02:58:46.198Z,100.00
2023-04-15T03:01:14.763Z,100.00
2023-04-15T03:03:42.977Z,100.00
2023-04-15T03:06:11.091Z,100.00
2023-04-15T03:08:40.436Z,100.00
2023-04-15T03:11:08.551Z,100.00
2023-04-15T03:13:36.535Z,100.00
2023-04-15T03:16:05.676Z,100.00
2023-04-15T03:18:33.885Z,100.00
2023-04-15T03:21:02.765Z,100.00
2023-04-15T03:23:32.720Z,100.00
2023-04-15T03:26:05.208Z,100.00
2023-04-15T03:28:33.265Z,100.00
2023-04-15T03:31:01.475Z,100.00
2023-04-15T03:33:33.657Z,100.00
2023-04-15T03:36:01.727Z,100.00
2023-04-15T03:38:30.031Z,100.00
2023-04-15T03:40:58.106Z,100.00
2023-04-15T03:43:27.497Z,100.00
2023-04-15T03:45:55.637Z,100.00
2023-04-15T03:48:23.955Z,100.00
2023-04-15T03:50:52.151Z,100.00
2023-04-15T03:53:20.456Z,100.00
2023-04-15T03:55:48.610Z,100.00
2023-04-15T03:58:16.686Z,100.00
2023-04-15T04:00:46.026Z,100.00
2023-04-15T04:03:14.354Z,100.00
2023-04-15T04:05:44.138Z,100.00
2023-04-15T04:08:13.966Z,100.00
2023-04-15T04:10:42.061Z,100.00
2023-04-15T04:13:10.148Z,100.00
2023-04-15T04:15:38.235Z,100.00
2023-04-15T04:18:07.801Z,100.00
2023-04-15T04:20:35.911Z,100.00
2023-04-15T04:23:03.895Z,99.41
2023-04-15T04:25:32.441Z,100.00
2023-04-15T04:28:00.690Z,99.72
2023-04-15T04:30:28.710Z,98.70
2023-04-15T04:32:56.889Z,97.81
2023-04-15T04:35:26.463Z,97.79
2023-04-15T04:37:54.912Z,96.73
2023-04-15T04:40:23.092Z,96.75
2023-04-15T04:42:51.112Z,96.54
2023-04-15T04:45:19.339Z,96.83
2023-04-15T04:47:49.273Z,96.09
2023-04-15T04:50:17.738Z,97.25
2023-04-15T04:52:47.250Z,96.38
2023-04-15T04:55:15.307Z,96.06
2023-04-15T04:57:43.382Z,95.06
2023-04-15T05:00:12.802Z,94.29
2023-04-15T05:02:41.940Z,91.04
2023-04-15T05:05:11.094Z,88.34
2023-04-15T05:07:39.597Z,89.02
2023-04-15T05:10:10.850Z,88.78
2023-04-15T05:12:38.967Z,88.07
2023-04-15T05:15:08.310Z,88.85
2023-04-15T05:17:36.502Z,90.03
2023-04-15T05:20:04.957Z,90.12
2023-04-15T05:22:33.187Z,90.49
2023-04-15T05:25:01.155Z,89.88
2023-04-15T05:27:30.871Z,90.99
2023-04-15T05:29:58.818Z,90.77
2023-04-15T05:32:27.026Z,90.34
2023-04-15T05:34:55.084Z,89.35
2023-04-15T05:37:23.053Z,89.06
2023-04-15T05:39:51.192Z,88.05
2023-04-15T05:42:19.185Z,87.27
2023-04-15T05:44:48.662Z,87.70
2023-04-15T05:47:16.695Z,87.01
2023-04-15T05:49:44.595Z,85.93
2023-04-15T05:52:12.721Z,85.32
2023-04-15T05:54:40.879Z,85.04
2023-04-15T05:57:08.852Z,84.47
2023-04-15T05:59:37.116Z,84.53
2023-04-15T06:02:06.661Z,83.32
2023-04-15T06:04:34.773Z,83.44
2023-04-15T06:07:02.929Z,82.88
2023-04-15T06:09:30.957Z,80.85
2023-04-15T06:11:59.959Z,81.16
2023-04-15T06:14:28.055Z,80.81
2023-04-15T06:16:56.429Z,80.61
2023-04-15T06:19:26.209Z,80.95
2023-04-15T06:21:54.369Z,79.25
2023-04-15T06:24:22.329Z,78.60
2023-04-15T06:26:50.715Z,78.76
2023-04-15T06:29:18.937Z,77.55
2023-04-15T06:31:49.272Z,78.07
2023-04-15T06:34:17.399Z,78.69
2023-04-15T06:36:47.024Z,78.32
2023-04-15T06:39:15.041Z,77.96
2023-04-15T06:41:43.174Z,74.73
2023-04-15T06:44:11.642Z,74.61
2023-04-15T06:46:39.953Z,75.56
2023-04-15T06:49:08.145Z,75.70
2023-04-15T06:51:37.143Z,74.34
2023-04-15T06:54:06.624Z,72.78
2023-04-15T06:56:34.916Z,72.63
2023-04-15T06:59:03.208Z,73.57
2023-04-15T07:01:31.520Z,72.95
2023-04-15T07:04:01.939Z,72.78
2023-04-15T07:06:29.755Z,71.78
2023-04-15T07:08:57.681Z,71.52
2023-04-15T07:11:27.327Z,71.15
2023-04-15T07:13:55.377Z,70.19
2023-04-15T07:16:23.392Z,68.76
2023-04-15T07:18:51.460Z,68.31
2023-04-15T07:21:19.568Z,67.60
2023-04-15T07:23:47.770Z,68.69
2023-04-15T07:26:15.695Z,68.47
2023-04-15T07:28:46.569Z,68.18
2023-04-15T07:31:15.051Z,66.72
2023-04-15T07:33:43.062Z,69.13
2023-04-15T07:36:11.170Z,66.42
2023-04-15T07:38:39.301Z,67.33
2023-04-15T07:41:07.349Z,65.97
2023-04-15T07:43:35.503Z,66.32
2023-04-15T07:46:05.922Z,67.59
2023-04-15T07:48:34.905Z,63.08
2023-04-15T07:51:03.925Z,63.43
2023-04-15T07:53:37.784Z,62.85
2023-04-15T07:56:08.012Z,64.59
2023-04-15T07:58:36.085Z,62.70
2023-04-15T08:01:09.763Z,63.80
2023-04-15T08:03:37.917Z,61.75
2023-04-15T08:06:06.663Z,60.57
2023-04-15T08:08:34.738Z,59.37
2023-04-15T08:11:02.746Z,61.20
2023-04-15T08:13:30.828Z,59.69
2023-04-15T08:16:18.864Z,59.16
2023-04-15T08:18:47.348Z,59.62
2023-04-15T08:21:15.665Z,59.04
2023-04-15T08:23:44.430Z,58.84
2023-04-15T08:26:12.949Z,57.14
2023-04-15T08:28:42.599Z,57.61
2023-04-15T08:31:11.124Z,58.74
2023-04-15T08:33:40.736Z,58.64
2023-04-15T08:36:09.409Z,58.17
2023-04-15T08:38:37.790Z,56.80
2023-04-15T08:41:13.138Z,57.43
2023-04-15T08:43:48.332Z,56.98
2023-04-15T08:46:17.878Z,56.88
2023-04-15T08:48:48.932Z,57.37
2023-04-15T08:51:17.932Z,57.76
2023-04-15T08:53:47.514Z,54.52
2023-04-15T08:56:16.907Z,55.26
2023-04-15T08:58:46.127Z,54.93
2023-04-15T09:01:14.416Z,56.50
2023-04-15T09:03:43.245Z,56.58
2023-04-15T09:06:13.003Z,58.07
2023-04-15T09:08:41.440Z,52.79
2023-04-15T09:11:09.483Z,53.70
2023-04-15T09:13:37.534Z,52.94
2023-04-15T09:16:11.003Z,51.90
2023-04-15T09:18:40.541Z,52.56
2023-04-15T09:21:11.262Z,50.64
2023-04-15T09:23:43.042Z,51.10
2023-04-15T09:26:10.886Z,53.65
2023-04-15T09:28:43.478Z,51.69
2023-04-15T09:31:12.132Z,51.03
2023-04-15T09:33:56.877Z,48.11
2023-04-15T09:36:25.282Z,49.80
2023-04-15T09:38:58.352Z,50.41
2023-04-15T09:41:35.638Z,47.23
2023-04-15T09:44:03.914Z,48.30
2023-04-15T09:46:44.572Z,49.15
2023-04-15T09:49:13.591Z,47.09
2023-04-15T09:51:43.397Z,47.41
2023-04-15T09:54:22.805Z,47.07
2023-04-15T09:56:50.776Z,46.82
2023-04-15T09:59:20.101Z,46.08
2023-04-15T10:01:49.154Z,46.72
2023-04-15T10:04:17.745Z,46.77
2023-04-15T10:06:46.577Z,45.47
2023-04-15T10:09:14.744Z,44.76
2023-04-15T10:11:45.007Z,45.08
2023-04-15T10:14:17.698Z,44.38
2023-04-15T10:16:49.666Z,44.96
2023-04-15T10:19:25.096Z,44.41
2023-04-15T10:21:53.812Z,46.12
2023-04-15T10:24:23.677Z,46.90
2023-04-15T10:26:53.714Z,46.35
2023-04-15T10:29:21.778Z,46.05
2023-04-15T10:31:50.256Z,45.79
2023-04-15T10:34:19.791Z,46.43
2023-04-15T10:36:47.798Z,47.40
2023-04-15T10:39:42.272Z,46.38
2023-04-15T10:42:12.933Z,45.44
2023-04-15T10:44:43.846Z,47.39
2023-04-15T10:47:13.710Z,46.51
2023-04-15T10:49:47.438Z,46.42
2023-04-15T10:52:17.243Z,45.98
2023-04-15T10:54:45.916Z,47.04
2023-04-15T10:57:23.764Z,46.90
2023-04-15T11:00:04.755Z,45.40
2023-04-15T11:02:44.608Z,44.49
2023-04-15T11:05:13.991Z,44.24
2023-04-15T11:07:49.640Z,44.63
2023-04-15T11:10:53.991Z,44.50
2023-04-15T11:13:27.352Z,45.71
2023-04-15T11:16:02.005Z,43.41
2023-04-15T11:18:32.962Z,45.50
2023-04-15T11:21:03.607Z,43.93
2023-04-15T11:23:37.689Z,45.03
2023-04-15T11:26:09.463Z,42.70
2023-04-15T11:28:40.837Z,42.99
2023-04-15T11:31:11.945Z,43.22
2023-04-15T11:33:46.285Z,43.44
2023-04-15T11:36:14.961Z,43.91
2023-04-15T11:38:48.455Z,43.59
2023-04-15T11:41:16.714Z,43.24
2023-04-15T11:43:46.104Z,44.38
2023-04-15T11:46:14.208Z,45.01
2023-04-15T11:48:44.442Z,44.77
2023-04-15T11:51:13.489Z,45.47
2023-04-15T11:53:43.936Z,41.47
2023-04-15T11:56:12.271Z,42.56
2023-04-15T11:58:40.707Z,41.59
2023-04-15T12:01:10.317Z,44.68
2023-04-15T12:03:40.771Z,43.39
2023-04-15T12:06:20.505Z,42.91
2023-04-15T12:09:06.820Z,44.48
2023-04-15T12:11:37.752Z,45.08
2023-04-15T12:14:08.280Z,44.49
2023-04-15T12:16:48.188Z,42.39
2023-04-15T12:19:25.231Z,43.39
2023-04-15T12:21:56.662Z,44.08
2023-04-15T12:24:25.889Z,46.99
2023-04-15T12:26:55.996Z,46.20
2023-04-15T12:29:27.731Z,44.80
2023-04-15T12:31:59.554Z,46.14
2023-04-15T12:34:29.642Z,44.19
2023-04-15T12:36:58.989Z,44.03
2023-04-15T12:39:30.494Z,44.91
2023-04-15T12:41:59.460Z,45.11
2023-04-15T12:44:30.338Z,44.79
2023-04-15T12:47:00.987Z,43.16
2023-04-15T12:49:29.576Z,44.29
2023-04-15T12:51:59.568Z,44.41
2023-04-15T12:54:28.689Z,44.28
2023-04-15T12:56:56.888Z,45.04
2023-04-15T12:59:25.125Z,44.45
2023-04-15T13:01:54.722Z,43.32
2023-04-15T13:04:24.656Z,45.81
2023-04-15T13:06:52.749Z,43.71
2023-04-15T13:09:20.946Z,43.81
2023-04-15T13:11:48.909Z,42.63
2023-04-15T13:14:16.992Z,43.69
2023-04-15T13:16:45.153Z,43.84
2023-04-15T13:19:13.115Z,42.98
2023-04-15T13:21:42.606Z,44.10
2023-04-15T13:24:10.806Z,43.77
2023-04-15T13:26:40.769Z,43.74
2023-04-15T13:29:08.751Z,42.68
2023-04-15T13:31:36.993Z,44.13
2023-04-15T13:34:05.166Z,42.70
2023-04-15T13:36:33.363Z,41.99
2023-04-15T13:39:03.533Z,42.51
2023-04-15T13:41:32.247Z,41.98
2023-04-15T13:44:00.234Z,42.67
2023-04-15T13:46:28.428Z,43.46
2023-04-15T13:48:56.334Z,44.15
2023-04-15T13:51:24.291Z,43.03
2023-04-15T13:53:52.544Z,42.36
2023-04-15T13:56:21.924Z,42.21
2023-04-15T13:58:51.503Z,41.61
2023-04-15T14:01:19.697Z,42.43
2023-04-15T14:03:47.707Z,43.17
2023-04-15T14:06:15.823Z,42.55
2023-04-15T14:08:43.968Z,42.40
2023-04-15T14:11:11.990Z,42.50
2023-04-15T14:13:41.269Z,43.76
2023-04-15T14:16:09.413Z,44.15
2023-04-15T14:18:38.361Z,43.22
2023-04-15T14:21:07.505Z,44.34
2023-04-15T14:23:35.558Z,44.69
2023-04-15T14:26:03.612Z,43.15
2023-04-15T14:28:32.171Z,43.37
2023-04-15T14:31:01.834Z,41.89
2023-04-15T14:33:30.059Z,43.63
2023-04-15T14:35:58.040Z,42.72
2023-04-15T14:38:26.308Z,41.89
2023-04-15T14:40:54.266Z,42.02
2023-04-15T14:43:22.305Z,43.79
2023-04-15T14:45:51.656Z,44.82
2023-04-15T14:48:21.120Z,43.73
2023-04-15T14:50:49.181Z,43.60
2023-04-15T14:53:17.295Z,43.88
2023-04-15T14:55:45.738Z,45.24
2023-04-15T14:58:13.761Z,43.69
2023-04-15T15:00:42.182Z,43.37
2023-04-15T15:03:13.764Z,43.89
2023-04-15T15:05:44.458Z,44.30
2023-04-15T15:08:12.741Z,43.53
2023-04-15T15:10:49.465Z,43.61
2023-04-15T15:13:18.656Z,42.81
2023-04-15T15:15:46.873Z,43.71
2023-04-15T15:18:14.987Z,43.46
2023-04-15T15:20:44.429Z,42.77
2023-04-15T15:23:12.409Z,42.38
2023-04-15T15:25:40.408Z,42.54
2023-04-15T15:28:08.750Z,42.83
2023-04-15T15:30:36.753Z,42.19
2023-04-15T15:33:04.940Z,42.01
2023-04-15T15:35:33.507Z,41.16
2023-04-15T15:38:02.842Z,41.18
2023-04-15T15:40:31.018Z,40.09
2023-04-15T15:42:59.183Z,39.27
2023-04-15T15:45:27.304Z,40.09
2023-04-15T15:47:57.104Z,38.50
2023-04-15T15:50:25.304Z,39.70
2023-04-15T15:52:53.177Z,39.54
2023-04-15T15:55:23.451Z,39.37
2023-04-15T15:57:54.373Z,40.78
2023-04-15T16:00:23.279Z,41.00
2023-04-15T16:05:25.733Z,42.15
2023-04-15T16:07:56.631Z,40.74
2023-04-15T16:10:27.438Z,40.44
2023-04-15T16:12:55.799Z,40.44
2023-04-15T16:15:24.451Z,41.36
2023-04-15T16:17:52.769Z,41.53
2023-04-15T16:20:21.066Z,42.14
2023-04-15T16:22:49.332Z,41.88
2023-04-15T16:25:18.574Z,41.58
2023-04-15T16:28:00.738Z,41.29
2023-04-15T16:30:31.546Z,40.02
2023-04-15T16:32:59.817Z,40.43
2023-04-15T16:35:28.422Z,40.81
2023-04-15T16:37:56.607Z,41.23
2023-04-15T16:40:25.010Z,42.34
2023-04-15T16:42:54.579Z,42.84
2023-04-15T16:45:22.698Z,44.95
2023-04-15T16:47:50.886Z,44.88
2023-04-15T16:50:18.983Z,44.42
2023-04-15T16:52:47.051Z,44.64
2023-04-15T16:55:15.002Z,46.15
2023-04-15T16:58:01.596Z,46.27
2023-04-15T17:00:33.077Z,47.11
2023-04-15T17:03:01.852Z,47.34
2023-04-15T17:05:30.662Z,48.35
2023-04-15T17:07:59.225Z,47.92
2023-04-15T17:10:27.407Z,49.06
2023-04-15T17:12:57.552Z,48.94
2023-04-15T17:15:26.114Z,49.47
2023-04-15T17:17:55.930Z,49.92
2023-04-15T17:20:24.116Z,50.53
2023-04-15T17:22:55.961Z,50.82
2023-04-15T17:25:24.816Z,51.11
2023-04-15T17:27:53.022Z,50.81
2023-04-15T17:30:21.329Z,51.15
2023-04-15T17:32:49.585Z,51.41
2023-04-15T17:35:19.754Z,52.23
2023-04-15T17:37:48.061Z,52.87
2023-04-15T17:40:16.118Z,52.80
2023-04-15T17:42:44.286Z,53.32
2023-04-15T17:45:12.820Z,52.76
2023-04-15T17:47:41.078Z,52.60
2023-04-15T17:50:10.010Z,53.50
2023-04-15T17:52:39.381Z,53.47
2023-04-15T17:55:08.137Z,53.99
2023-04-15T17:57:36.411Z,53.27
2023-04-15T18:00:04.550Z,54.18
2023-04-15T18:02:33.902Z,53.61
2023-04-15T18:05:04.697Z,53.66
2023-04-15T18:07:32.589Z,53.90
2023-04-15T18:10:01.986Z,55.13
2023-04-15T18:12:30.223Z,54.81
2023-04-15T18:14:58.182Z,55.05
2023-04-15T18:17:26.266Z,54.43
2023-04-15T18:19:54.479Z,54.71
2023-04-15T18:22:22.473Z,54.18
2023-04-15T18:24:50.957Z,54.36
2023-04-15T18:27:20.653Z,54.91
2023-04-15T18:29:48.556Z,54.84
2023-04-15T18:32:16.514Z,54.92
2023-04-15T18:34:44.647Z,55.91
2023-04-15T18:37:12.673Z,56.95
2023-04-15T18:39:43.285Z,56.66
2023-04-15T18:42:11.516Z,56.53
2023-04-15T18:44:40.922Z,57.15
2023-04-15T18:47:08.894Z,56.27
2023-04-15T18:49:37.516Z,56.48
2023-04-15T18:52:05.504Z,56.60
2023-04-15T18:54:33.531Z,56.55
2023-04-15T18:57:01.630Z,56.29
2023-04-15T18:59:30.710Z,58.28
2023-04-15T19:02:01.569Z,57.60
2023-04-15T19:04:32.142Z,58.49
2023-04-15T19:07:00.261Z,58.38
2023-04-15T19:09:29.500Z,58.88
2023-04-15T19:11:58.008Z,58.61
2023-04-15T19:14:25.967Z,58.84
2023-04-15T19:16:54.022Z,59.00
2023-04-15T19:19:23.554Z,59.11
2023-04-15T19:21:51.706Z,59.14
2023-04-15T19:24:20.503Z,59.08
2023-04-15T19:26:50.797Z,58.65
2023-04-15T19:29:18.846Z,59.65
2023-04-15T19:31:46.870Z,59.06
2023-04-15T19:34:14.972Z,59.49
2023-04-15T19:36:44.372Z,60.39
2023-04-15T19:39:12.522Z,60.69
2023-04-15T19:41:40.736Z,60.56
2023-04-15T19:44:08.738Z,59.62
2023-04-15T19:46:36.876Z,60.19
2023-04-15T19:49:05.405Z,59.88
2023-04-15T19:51:33.552Z,59.69
2023-04-15T19:54:03.139Z,60.51
2023-04-15T19:56:33.673Z,60.92
2023-04-15T19:59:02.694Z,60.53
2023-04-15T20:01:30.900Z,60.85
2023-04-15T20:03:59.821Z,60.55
2023-04-15T20:06:28.561Z,59.74
2023-04-15T20:08:56.576Z,60.70
2023-04-15T20:12:46.793Z,60.16
2023-04-15T20:14:17.713Z,62.11
2023-04-15T20:16:45.909Z,61.99
2023-04-15T20:19:13.943Z,61.25
2023-04-15T20:21:41.843Z,63.83
2023-04-15T20:24:10.139Z,64.18
2023-04-15T20:26:39.424Z,63.55
2023-04-15T20:29:07.562Z,63.57
2023-04-15T20:31:36.351Z,63.31
2023-04-15T20:34:04.253Z,62.57
2023-04-15T20:36:33.317Z,62.59
2023-04-15T20:39:01.430Z,63.37
2023-04-15T20:41:29.463Z,66.42
2023-04-15T20:43:58.755Z,66.71
2023-04-15T20:46:27.765Z,66.76
2023-04-15T20:48:56.319Z,66.75
2023-04-15T20:51:24.233Z,66.42
2023-04-15T20:53:52.626Z,66.61
2023-04-15T20:56:20.841Z,67.62
2023-04-15T20:58:48.808Z,68.33
2023-04-15T21:01:18.391Z,69.22
2023-04-15T21:03:46.788Z,68.34
2023-04-15T21:06:14.856Z,67.12
2023-04-15T21:08:42.900Z,69.69
2023-04-15T21:11:11.341Z,68.93
2023-04-15T21:13:39.490Z,68.73
2023-04-15T21:16:09.133Z,70.31
2023-04-15T21:18:38.744Z,69.43
2023-04-15T21:21:09.449Z,71.13
2023-04-15T21:23:37.498Z,71.46
2023-04-15T21:26:06.610Z,72.32
2023-04-15T21:28:34.561Z,71.63
2023-04-15T21:31:02.868Z,72.33
2023-04-15T21:33:30.944Z,72.59
2023-04-15T21:36:00.421Z,72.20
2023-04-15T21:38:28.755Z,72.43
2023-04-15T21:40:56.912Z,73.01
2023-04-15T21:43:25.730Z,72.67
2023-04-15T21:46:22.344Z,73.71
2023-04-15T21:48:42.846Z,73.37
2023-04-15T21:51:12.613Z,74.94
2023-04-15T21:53:40.819Z,75.70
2023-04-15T21:56:09.555Z,76.69
2023-04-15T21:58:38.040Z,76.72
2023-04-15T22:01:06.440Z,77.68
2023-04-15T22:03:34.957Z,78.93
2023-04-15T22:06:03.969Z,78.24
2023-04-15T22:08:44.599Z,78.59
2023-04-15T22:11:23.173Z,79.33
2023-04-15T22:13:51.066Z,80.21
2023-04-15T22:16:19.261Z,81.70
2023-04-15T22:18:47.425Z,83.42
2023-04-15T22:21:18.511Z,85.27
2023-04-15T22:23:49.155Z,83.33
2023-04-15T22:26:19.077Z,84.65
2023-04-15T22:28:47.173Z,85.75
2023-04-15T22:31:15.428Z,85.72
2023-04-15T22:33:43.570Z,87.88
2023-04-15T22:36:11.717Z,88.70
2023-04-15T22:38:40.920Z,88.47
2023-04-15T22:41:10.573Z,88.86
2023-04-15T22:43:38.504Z,89.47
2023-04-15T22:46:06.723Z,90.10
2023-04-15T22:48:35.454Z,91.47
2023-04-15T22:51:04.905Z,90.78
2023-04-15T22:53:33.087Z,91.05
2023-04-15T22:56:01.032Z,90.33
2023-04-15T22:58:32.139Z,92.29
2023-04-15T23:01:00.332Z,93.44
2023-04-15T23:03:28.663Z,93.26
2023-04-15T23:05:56.776Z,92.76
2023-04-15T23:08:25.051Z,94.67
2023-04-15T23:10:53.104Z,96.58
2023-04-15T23:13:21.270Z,97.03
2023-04-15T23:15:50.770Z,98.27
2023-04-15T23:18:18.738Z,100.00
2023-04-15T23:20:47.479Z,99.81
2023-04-15T23:23:18.033Z,100.00
2023-04-15T23:25:45.762Z,99.17
2023-04-15T23:28:13.692Z,98.54
2023-04-15T23:30:42.057Z,99.82
2023-04-15T23:33:12.060Z,100.00
2023-04-15T23:35:39.997Z,100.00
2023-04-15T23:38:11.009Z,99.58
2023-04-15T23:40:38.887Z,100.00
2023-04-15T23:43:06.888Z,100.00
2023-04-15T23:45:35.077Z,100.00
2023-04-15T23:48:03.366Z,100.00
2023-04-15T23:50:33.147Z,100.00
2023-04-15T23:53:02.069Z,100.00
2023-04-15T23:55:30.700Z,100.00
2023-04-15T23:57:58.718Z,100.00
